createdAt,value
2023-01-19T00:01:46.368Z,43.53
2023-01-19T00:04:15.553Z,44.50
2023-01-19T00:06:44.440Z,42.45
2023-01-19T00:09:13.758Z,44.67
2023-01-19T00:11:43.235Z,44.20
2023-01-19T00:14:12.432Z,44.22
2023-01-19T00:16:41.571Z,43.70
2023-01-19T00:19:10.818Z,42.75
2023-01-19T00:21:39.671Z,43.65
2023-01-19T00:24:09.064Z,43.03
2023-01-19T00:26:41.538Z,46.17
2023-01-19T00:29:12.819Z,44.25
2023-01-19T00:31:42.881Z,45.53
2023-01-19T00:34:12.099Z,46.38
2023-01-19T00:36:41.327Z,45.00
2023-01-19T00:39:10.552Z,45.22
2023-01-19T00:41:58.100Z,44.08
2023-01-19T00:44:27.243Z,44.33
2023-01-19T00:46:56.285Z,45.22
2023-01-19T00:49:25.550Z,47.10
2023-01-19T00:51:54.475Z,47.38
2023-01-19T00:54:23.941Z,47.22
2023-01-19T00:56:52.902Z,48.05
2023-01-19T00:59:22.334Z,49.22
2023-01-19T01:01:53.157Z,49.40
2023-01-19T01:04:24.303Z,46.00
2023-01-19T01:06:54.219Z,47.00
2023-01-19T01:09:25.474Z,51.03
2023-01-19T01:11:55.459Z,52.33
2023-01-19T01:14:25.840Z,50.90
2023-01-19T01:16:59.195Z,50.05
2023-01-19T01:19:28.990Z,53.35
2023-01-19T01:21:58.345Z,50.38
2023-01-19T01:24:27.812Z,57.63
2023-01-19T01:26:58.022Z,51.83
2023-01-19T01:29:27.813Z,54.17
2023-01-19T01:31:57.835Z,55.05
2023-01-19T01:34:26.730Z,55.53
2023-01-19T01:36:56.020Z,60.97
2023-01-19T01:39:25.498Z,64.43
2023-01-19T01:41:55.899Z,64.18
2023-01-19T01:44:53.872Z,68.88
2023-01-19T01:47:29.107Z,65.57
2023-01-19T01:50:19.248Z,61.90
2023-01-19T01:53:07.639Z,69.90
2023-01-19T01:55:48.823Z,74.85
2023-01-19T01:58:18.699Z,70.55
2023-01-19T02:01:06.469Z,71.32
2023-01-19T02:03:36.522Z,68.75
2023-01-19T02:06:08.906Z,70.90
2023-01-19T02:09:27.095Z,68.47
2023-01-19T02:12:15.498Z,67.82
2023-01-19T02:14:44.846Z,95.85
2023-01-19T02:17:14.130Z,111.78
2023-01-19T02:19:45.477Z,98.30
2023-01-19T02:22:18.873Z,86.15
2023-01-19T02:24:48.518Z,74.35
2023-01-19T02:27:18.604Z,73.03
2023-01-19T02:29:48.214Z,68.60
2023-01-19T02:32:17.220Z,68.72
2023-01-19T02:34:46.730Z,93.40
2023-01-19T02:37:19.397Z,72.88
2023-01-19T02:39:58.960Z,71.90
2023-01-19T02:42:53.162Z,73.13
2023-01-19T02:45:24.208Z,74.75
2023-01-19T02:47:54.337Z,82.90
2023-01-19T02:51:05.373Z,86.50
2023-01-19T02:53:34.944Z,77.28
2023-01-19T02:56:24.862Z,77.20
2023-01-19T02:59:07.709Z,77.97
2023-01-19T03:04:39.127Z,74.32
2023-01-19T03:07:27.080Z,70.60
2023-01-19T03:10:04.492Z,71.45
2023-01-19T03:12:44.820Z,77.57
2023-01-19T03:15:34.759Z,79.07
2023-01-19T03:18:08.202Z,76.50
2023-01-19T03:20:39.133Z,74.32
2023-01-19T03:23:14.135Z,75.47
2023-01-19T03:25:48.656Z,76.43
2023-01-19T03:28:21.475Z,81.28
2023-01-19T03:30:59.465Z,79.25
2023-01-19T03:33:36.398Z,77.72
2023-01-19T03:36:13.447Z,76.75
2023-01-19T03:38:45.525Z,73.82
2023-01-19T03:41:19.292Z,74.82
2023-01-19T03:43:51.243Z,67.70
2023-01-19T03:46:22.035Z,64.45
2023-01-19T03:48:52.021Z,63.85
2023-01-19T03:51:21.513Z,62.63
2023-01-19T03:53:51.491Z,63.15
2023-01-19T03:56:26.384Z,64.28
2023-01-19T03:58:56.325Z,60.20
2023-01-19T04:01:27.073Z,62.80
2023-01-19T04:03:56.813Z,59.55
2023-01-19T04:06:26.603Z,57.72
2023-01-19T04:08:56.141Z,55.05
2023-01-19T04:11:25.653Z,51.60
2023-01-19T04:13:55.726Z,52.53
2023-01-19T04:16:25.317Z,55.42
2023-01-19T04:18:54.433Z,56.13
2023-01-19T04:21:24.056Z,51.20
2023-01-19T04:23:54.386Z,51.28
2023-01-19T04:26:26.884Z,52.83
2023-01-19T04:28:56.298Z,53.67
2023-01-19T04:31:26.391Z,51.25
2023-01-19T04:33:57.401Z,48.55
2023-01-19T04:36:27.240Z,49.33
2023-01-19T04:38:56.856Z,46.78
2023-01-19T04:41:26.326Z,51.00
2023-01-19T04:43:56.009Z,51.28
2023-01-19T04:46:25.306Z,54.80
2023-01-19T04:48:54.759Z,54.88
2023-01-19T04:51:24.136Z,52.42
2023-01-19T04:53:53.746Z,48.85
2023-01-19T04:56:23.837Z,47.25
2023-01-19T04:58:53.036Z,48.28
2023-01-19T05:01:22.433Z,41.78
2023-01-19T05:03:51.908Z,42.30
2023-01-19T05:06:21.141Z,42.70
2023-01-19T05:08:50.636Z,48.05
2023-01-19T05:11:20.032Z,45.22
2023-01-19T05:13:50.879Z,43.42
2023-01-19T05:16:20.633Z,42.97
2023-01-19T05:18:50.124Z,39.25
2023-01-19T05:21:19.471Z,37.97
2023-01-19T05:23:48.290Z,39.15
2023-01-19T05:26:17.919Z,42.60
2023-01-19T05:28:47.589Z,44.72
2023-01-19T05:31:18.650Z,41.00
2023-01-19T05:33:50.178Z,35.85
2023-01-19T05:36:19.126Z,36.75
2023-01-19T05:38:48.430Z,37.80
2023-01-19T05:41:18.749Z,32.72
2023-01-19T05:43:48.155Z,39.75
2023-01-19T05:46:17.513Z,38.25
2023-01-19T05:48:46.944Z,40.95
2023-01-19T05:51:16.226Z,39.85
2023-01-19T05:53:45.512Z,39.28
2023-01-19T05:56:14.582Z,37.38
2023-01-19T05:58:43.507Z,44.88
2023-01-19T06:01:12.820Z,47.72
2023-01-19T06:03:42.120Z,44.65
2023-01-19T06:06:11.149Z,44.60
2023-01-19T06:08:40.763Z,48.25
2023-01-19T06:11:10.723Z,51.35
2023-01-19T06:13:44.400Z,48.40
2023-01-19T06:16:14.115Z,50.42
2023-01-19T06:18:43.852Z,54.15
2023-01-19T06:21:15.253Z,51.30
2023-01-19T06:23:44.826Z,49.53
2023-01-19T06:26:14.831Z,47.40
2023-01-19T06:28:44.123Z,47.60
2023-01-19T06:31:14.013Z,57.90
2023-01-19T06:33:43.820Z,48.45
2023-01-19T06:36:13.415Z,49.78
2023-01-19T06:38:42.786Z,46.42
2023-01-19T06:41:12.304Z,46.83
2023-01-19T06:43:41.806Z,48.10
2023-01-19T06:46:11.420Z,55.88
2023-01-19T06:48:40.890Z,54.20
2023-01-19T06:51:37.971Z,53.72
2023-01-19T06:54:06.983Z,50.78
2023-01-19T06:56:35.770Z,43.67
2023-01-19T06:59:05.517Z,41.03
2023-01-19T07:01:34.696Z,39.47
2023-01-19T07:04:04.989Z,36.53
2023-01-19T07:06:34.485Z,37.08
2023-01-19T07:09:08.001Z,40.05
2023-01-19T07:11:37.882Z,41.80
2023-01-19T07:14:07.490Z,41.17
2023-01-19T07:16:36.840Z,46.17
2023-01-19T07:19:06.129Z,43.92
2023-01-19T07:21:35.163Z,39.10
2023-01-19T07:24:04.887Z,37.42
2023-01-19T07:26:34.260Z,32.72
2023-01-19T07:29:03.827Z,26.75
2023-01-19T07:31:33.304Z,22.75
2023-01-19T07:34:02.452Z,20.73
2023-01-19T07:36:32.327Z,24.83
2023-01-19T07:39:01.483Z,20.98
2023-01-19T07:41:30.625Z,28.80
2023-01-19T07:44:04.481Z,23.52
2023-01-19T07:46:33.922Z,28.25
2023-01-19T07:49:03.336Z,30.98
2023-01-19T07:51:32.537Z,34.17
2023-01-19T07:54:02.607Z,27.02
2023-01-19T07:56:44.938Z,26.67
2023-01-19T07:59:14.379Z,24.58
2023-01-19T08:01:43.421Z,28.73
2023-01-19T08:04:13.473Z,28.90
2023-01-19T08:06:47.398Z,26.15
2023-01-19T08:09:16.663Z,25.20
2023-01-19T08:11:45.976Z,30.58
2023-01-19T08:14:15.210Z,25.52
2023-01-19T08:16:44.593Z,26.05
2023-01-19T08:19:14.568Z,24.48
2023-01-19T08:21:44.375Z,25.05
2023-01-19T08:24:22.637Z,25.15
2023-01-19T08:26:52.861Z,25.60
2023-01-19T08:29:22.543Z,23.88
2023-01-19T08:31:52.002Z,23.15
2023-01-19T08:34:21.810Z,20.73
2023-01-19T08:36:51.281Z,20.77
2023-01-19T08:39:20.921Z,20.70
2023-01-19T08:41:51.090Z,23.40
2023-01-19T08:44:21.040Z,25.00
2023-01-19T08:46:50.947Z,32.35
2023-01-19T08:49:20.259Z,31.60
2023-01-19T08:55:18.351Z,34.42
2023-01-19T08:57:47.764Z,32.00
2023-01-19T09:00:17.732Z,32.30
2023-01-19T09:02:53.109Z,33.75
2023-01-19T09:05:23.755Z,32.58
2023-01-19T09:07:53.444Z,32.75
2023-01-19T09:10:23.063Z,32.45
2023-01-19T09:12:52.796Z,31.67
2023-01-19T09:15:21.704Z,36.08
2023-01-19T09:17:53.360Z,31.50
2023-01-19T09:20:24.439Z,40.83
2023-01-19T09:22:53.866Z,44.03
2023-01-19T09:25:23.229Z,31.58
2023-01-19T09:27:53.282Z,31.10
2023-01-19T09:30:22.801Z,29.55
2023-01-19T09:32:52.198Z,30.27
2023-01-19T09:35:22.795Z,28.00
2023-01-19T09:37:52.288Z,27.70
2023-01-19T09:40:22.598Z,27.52
2023-01-19T09:43:25.743Z,30.02
2023-01-19T09:46:02.356Z,27.60
2023-01-19T09:48:40.751Z,27.15
2023-01-19T09:51:24.389Z,27.48
2023-01-19T09:54:13.971Z,29.95
2023-01-19T09:56:51.219Z,24.50
2023-01-19T09:59:23.799Z,24.05
2023-01-19T10:02:05.242Z,26.42
2023-01-19T10:04:42.395Z,28.13
2023-01-19T10:07:54.486Z,27.10
2023-01-19T10:10:32.934Z,25.65
2023-01-19T10:13:13.877Z,38.35
2023-01-19T10:15:43.027Z,28.73
2023-01-19T10:18:15.326Z,27.40
2023-01-19T10:20:53.189Z,28.73
2023-01-19T10:23:41.340Z,25.45
2023-01-19T10:26:24.675Z,29.42
2023-01-19T10:28:59.071Z,28.05
2023-01-19T10:31:28.569Z,32.13
2023-01-19T10:33:58.259Z,29.48
2023-01-19T10:36:30.419Z,28.85
2023-01-19T10:39:00.242Z,27.50
2023-01-19T10:41:53.484Z,29.92
2023-01-19T10:44:31.150Z,27.88
2023-01-19T10:47:03.183Z,31.45
2023-01-19T10:49:40.267Z,32.05
2023-01-19T10:52:21.030Z,34.17
2023-01-19T10:54:50.514Z,33.00
2023-01-19T10:57:32.023Z,33.25
2023-01-19T11:00:01.651Z,37.22
2023-01-19T11:02:33.374Z,37.97
2023-01-19T11:05:24.679Z,39.63
2023-01-19T11:07:54.131Z,39.53
2023-01-19T11:10:25.240Z,41.35
2023-01-19T11:13:02.320Z,43.40
2023-01-19T11:15:56.190Z,47.75
2023-01-19T11:18:33.592Z,42.60
2023-01-19T11:21:15.587Z,44.97
2023-01-19T11:23:52.014Z,40.28
2023-01-19T11:26:42.797Z,37.00
2023-01-19T11:29:23.432Z,36.08
2023-01-19T11:31:54.379Z,49.42
2023-01-19T11:34:41.264Z,51.58
2023-01-19T11:37:20.396Z,50.42
2023-01-19T11:39:53.602Z,48.63
2023-01-19T11:42:24.170Z,44.53
2023-01-19T11:44:56.153Z,41.60
2023-01-19T11:47:42.772Z,42.60
2023-01-19T11:50:30.784Z,38.80
2023-01-19T11:53:18.918Z,45.70
2023-01-19T11:55:59.256Z,49.90
2023-01-19T11:58:29.217Z,57.00
2023-01-19T12:01:22.091Z,49.20
2023-01-19T12:04:11.734Z,38.70
2023-01-19T12:06:48.933Z,44.83
2023-01-19T12:09:43.703Z,48.88
2023-01-19T12:12:33.613Z,53.45
2023-01-19T12:15:23.740Z,63.38
2023-01-19T12:17:56.466Z,59.90
2023-01-19T12:20:47.724Z,71.35
2023-01-19T12:23:34.441Z,78.32
2023-01-19T12:26:34.779Z,59.97
2023-01-19T12:29:15.834Z,54.45
2023-01-19T12:31:45.136Z,45.90
2023-01-19T12:34:41.644Z,43.80
2023-01-19T12:37:32.089Z,39.17
2023-01-19T12:40:29.794Z,43.58
2023-01-19T12:43:07.193Z,44.55
2023-01-19T12:45:40.774Z,40.53
2023-01-19T12:48:26.417Z,42.17
2023-01-19T12:50:55.484Z,46.78
2023-01-19T12:53:27.674Z,46.95
2023-01-19T12:56:02.000Z,48.92
2023-01-19T12:58:31.390Z,62.85
2023-01-19T13:01:22.448Z,71.75
2023-01-19T13:04:10.745Z,76.82
2023-01-19T13:06:49.298Z,73.78
2023-01-19T13:09:34.328Z,62.17
2023-01-19T13:12:15.906Z,61.90
2023-01-19T13:14:46.122Z,66.40
2023-01-19T13:17:39.299Z,75.25
2023-01-19T13:20:29.599Z,76.55
2023-01-19T13:23:27.472Z,81.63
2023-01-19T13:26:14.265Z,68.47
2023-01-19T13:28:46.489Z,55.22
2023-01-19T13:31:16.479Z,51.40
2023-01-19T13:33:58.041Z,56.20
2023-01-19T13:36:48.891Z,47.83
2023-01-19T13:39:29.119Z,45.70
2023-01-19T13:42:02.632Z,48.33
2023-01-19T13:44:43.399Z,53.42
2023-01-19T13:47:21.344Z,57.20
2023-01-19T13:49:54.746Z,55.15
2023-01-19T13:52:26.025Z,53.80
2023-01-19T13:55:03.083Z,62.22
2023-01-19T13:57:35.284Z,68.80
2023-01-19T14:00:09.419Z,70.25
2023-01-19T14:02:42.722Z,69.20
2023-01-19T14:05:17.462Z,60.38
2023-01-19T14:07:47.641Z,63.60
2023-01-19T14:10:17.858Z,64.40
2023-01-19T14:12:58.933Z,63.67
2023-01-19T14:15:31.099Z,78.68
2023-01-19T14:18:12.368Z,77.55
2023-01-19T14:20:42.482Z,74.50
2023-01-19T14:23:37.136Z,78.60
2023-01-19T14:26:07.163Z,64.50
2023-01-19T14:28:41.556Z,63.88
2023-01-19T14:31:29.916Z,62.97
2023-01-19T14:34:02.014Z,61.40
2023-01-19T14:36:40.267Z,62.13
2023-01-19T14:39:24.129Z,67.20
2023-01-19T14:41:56.539Z,74.60
2023-01-19T14:44:35.829Z,73.90
2023-01-19T14:47:07.254Z,65.75
2023-01-19T14:49:42.367Z,67.18
2023-01-19T14:52:28.383Z,62.25
2023-01-19T14:55:00.779Z,66.07
2023-01-19T14:57:30.834Z,67.97
2023-01-19T15:00:00.205Z,70.20
2023-01-19T15:02:29.430Z,71.43
2023-01-19T15:04:58.951Z,77.93
2023-01-19T15:07:29.304Z,79.45
2023-01-19T15:10:00.820Z,78.85
2023-01-19T15:12:30.789Z,79.20
2023-01-19T15:15:00.335Z,78.18
2023-01-19T15:17:29.588Z,78.85
2023-01-19T15:19:58.955Z,74.85
2023-01-19T15:22:29.371Z,69.80
2023-01-19T15:25:01.037Z,72.85
2023-01-19T15:27:30.400Z,69.82
2023-01-19T15:30:00.696Z,71.50
2023-01-19T15:32:29.813Z,73.40
2023-01-19T15:34:59.043Z,73.05
2023-01-19T15:37:29.024Z,75.18
2023-01-19T15:39:58.406Z,60.72
2023-01-19T15:42:27.384Z,55.80
2023-01-19T15:44:56.693Z,52.42
2023-01-19T15:47:25.801Z,51.47
2023-01-19T15:49:55.138Z,50.65
2023-01-19T15:52:24.578Z,55.45
2023-01-19T15:54:53.893Z,55.35
2023-01-19T15:57:23.204Z,48.15
2023-01-19T15:59:52.340Z,45.35
2023-01-19T16:02:22.055Z,49.78
2023-01-19T16:04:51.753Z,50.88
2023-01-19T16:07:21.936Z,48.40
2023-01-19T16:09:51.551Z,48.10
2023-01-19T16:12:20.554Z,49.60
2023-01-19T16:14:50.336Z,48.85
2023-01-19T16:17:19.946Z,51.05
2023-01-19T16:19:49.480Z,51.75
2023-01-19T16:22:18.550Z,50.25
2023-01-19T16:24:48.231Z,50.15
2023-01-19T16:27:17.341Z,45.50
2023-01-19T16:29:46.733Z,42.55
2023-01-19T16:32:17.017Z,44.28
2023-01-19T16:34:46.428Z,40.40
2023-01-19T16:37:16.447Z,39.38
2023-01-19T16:39:46.499Z,41.80
2023-01-19T16:42:17.807Z,43.15
2023-01-19T16:44:47.291Z,43.97
2023-01-19T16:47:16.253Z,42.78
2023-01-19T16:49:46.015Z,43.20
2023-01-19T16:52:16.109Z,45.70
2023-01-19T16:54:49.670Z,44.85
2023-01-19T16:57:19.494Z,46.28
2023-01-19T16:59:48.999Z,46.72
2023-01-19T17:02:18.298Z,50.05
2023-01-19T17:04:48.254Z,51.53
2023-01-19T17:07:19.284Z,55.38
2023-01-19T17:09:48.611Z,54.97
2023-01-19T17:12:18.373Z,53.78
2023-01-19T17:14:51.091Z,57.13
2023-01-19T17:17:21.286Z,55.50
2023-01-19T17:19:51.417Z,57.50
2023-01-19T17:22:21.165Z,57.38
2023-01-19T17:24:50.891Z,58.55
2023-01-19T17:27:20.537Z,59.55
2023-01-19T17:29:51.369Z,61.30
2023-01-19T17:34:52.165Z,64.03
2023-01-19T17:37:21.415Z,63.43
2023-01-19T17:39:50.954Z,61.67
2023-01-19T17:42:20.321Z,62.92
2023-01-19T17:44:49.828Z,63.22
2023-01-19T17:47:18.899Z,62.53
2023-01-19T17:49:47.920Z,64.88
2023-01-19T17:52:17.987Z,63.78
2023-01-19T17:54:47.619Z,64.43
2023-01-19T17:57:16.673Z,59.17
2023-01-19T17:59:47.951Z,63.15
2023-01-19T18:02:17.505Z,63.83
2023-01-19T18:04:47.010Z,66.28
2023-01-19T18:07:16.194Z,65.38
2023-01-19T18:09:45.460Z,68.15
2023-01-19T18:12:15.348Z,67.28
2023-01-19T18:14:44.377Z,68.15
2023-01-19T18:17:13.637Z,65.85
2023-01-19T18:19:43.278Z,64.97
2023-01-19T18:22:12.950Z,62.60
2023-01-19T18:24:42.099Z,60.28
2023-01-19T18:27:11.698Z,66.15
2023-01-19T18:29:41.068Z,64.55
2023-01-19T18:32:10.606Z,64.40
2023-01-19T18:34:39.969Z,61.58
2023-01-19T18:37:10.157Z,61.83
2023-01-19T18:39:39.670Z,62.38
2023-01-19T18:42:09.201Z,65.43
2023-01-19T18:44:38.594Z,65.30
2023-01-19T18:47:07.793Z,63.63
2023-01-19T18:49:36.714Z,63.13
2023-01-19T18:52:06.456Z,64.68
2023-01-19T18:54:35.645Z,62.40
2023-01-19T18:57:04.833Z,59.13
2023-01-19T18:59:34.389Z,64.85
2023-01-19T19:02:06.228Z,60.42
2023-01-19T19:04:35.694Z,65.43
2023-01-19T19:07:04.834Z,64.35
2023-01-19T19:09:34.168Z,62.80
2023-01-19T19:12:03.651Z,64.10
2023-01-19T19:14:34.368Z,64.38
2023-01-19T19:17:03.600Z,65.22
2023-01-19T19:19:32.860Z,65.07
2023-01-19T19:22:02.165Z,65.78
2023-01-19T19:24:31.596Z,60.78
2023-01-19T19:27:01.057Z,65.80
2023-01-19T19:29:30.530Z,63.92
2023-01-19T19:32:00.549Z,66.88
2023-01-19T19:34:30.345Z,66.78
2023-01-19T19:37:01.120Z,67.00
2023-01-19T19:39:31.202Z,65.68
2023-01-19T19:42:00.319Z,67.55
2023-01-19T19:44:29.863Z,67.97
2023-01-19T19:46:59.353Z,64.80
2023-01-19T19:49:28.695Z,70.15
2023-01-19T19:51:57.875Z,67.18
2023-01-19T19:54:27.588Z,63.33
2023-01-19T19:56:56.422Z,62.08
2023-01-19T19:59:25.437Z,58.03
2023-01-19T20:01:55.890Z,53.95
2023-01-19T20:04:26.209Z,51.47
2023-01-19T20:06:55.748Z,49.78
2023-01-19T20:09:25.087Z,48.90
2023-01-19T20:11:54.513Z,46.30
2023-01-19T20:14:25.096Z,40.60
2023-01-19T20:16:55.316Z,38.10
2023-01-19T20:19:24.600Z,37.83
2023-01-19T20:21:53.890Z,36.05
2023-01-19T20:24:22.928Z,34.20
2023-01-19T20:26:54.277Z,31.90
2023-01-19T20:29:24.058Z,31.83
2023-01-19T20:31:56.799Z,30.52
2023-01-19T20:36:57.744Z,29.50
2023-01-19T20:39:27.187Z,30.02
2023-01-19T20:41:56.415Z,30.80
2023-01-19T20:44:27.682Z,31.10
2023-01-19T20:46:57.322Z,31.40
2023-01-19T20:49:27.448Z,30.85
2023-01-19T20:51:59.549Z,29.73
2023-01-19T20:54:31.282Z,31.45
2023-01-19T20:57:00.833Z,29.38
2023-01-19T20:59:30.254Z,31.30
2023-01-19T21:01:59.582Z,31.65
2023-01-19T21:04:28.308Z,30.80
2023-01-19T21:06:57.494Z,30.63
2023-01-19T21:09:26.855Z,31.45
2023-01-19T21:11:57.440Z,32.72
2023-01-19T21:14:27.665Z,31.90
2023-01-19T21:17:00.304Z,29.40
2023-01-19T21:19:29.324Z,32.97
2023-01-19T21:21:58.624Z,32.83
2023-01-19T21:24:27.721Z,31.38
2023-01-19T21:26:56.968Z,32.15
2023-01-19T21:29:26.414Z,30.98
2023-01-19T21:31:55.928Z,31.70
2023-01-19T21:34:25.255Z,31.52
2023-01-19T21:36:54.781Z,33.30
2023-01-19T21:39:24.107Z,29.55
2023-01-19T21:41:53.412Z,30.77
2023-01-19T21:44:22.765Z,31.00
2023-01-19T21:46:51.952Z,31.25
2023-01-19T21:49:21.868Z,32.13
2023-01-19T21:51:53.619Z,29.67
2023-01-19T21:54:22.904Z,29.03
2023-01-19T21:56:52.278Z,29.15
2023-01-19T21:59:21.624Z,28.88
2023-01-19T22:01:51.288Z,27.67
2023-01-19T22:04:20.512Z,28.50
2023-01-19T22:06:49.610Z,27.48
2023-01-19T22:09:19.095Z,26.67
2023-01-19T22:11:48.628Z,26.13
2023-01-19T22:14:17.519Z,27.25
2023-01-19T22:16:46.973Z,25.90
2023-01-19T22:19:16.341Z,24.60
2023-01-19T22:21:45.555Z,25.45
2023-01-19T22:24:14.736Z,28.23
2023-01-19T22:26:43.938Z,27.70
2023-01-19T22:29:14.222Z,29.15
2023-01-19T22:31:44.238Z,27.77
2023-01-19T22:34:14.507Z,29.73
2023-01-19T22:36:44.319Z,27.80
2023-01-19T22:39:14.666Z,27.90
2023-01-19T22:41:48.985Z,29.70
2023-01-19T22:44:21.955Z,31.67
2023-01-19T22:46:55.168Z,30.17
2023-01-19T22:49:24.395Z,28.45
2023-01-19T22:51:55.281Z,29.88
2023-01-19T22:54:24.500Z,31.90
2023-01-19T22:56:53.407Z,29.77
2023-01-19T22:59:22.654Z,29.30
2023-01-19T23:01:52.441Z,28.40
2023-01-19T23:04:21.562Z,29.42
2023-01-19T23:06:53.177Z,30.50
2023-01-19T23:09:23.820Z,30.90
2023-01-19T23:11:53.871Z,29.45
2023-01-19T23:14:24.021Z,30.88
2023-01-19T23:16:53.589Z,30.58
2023-01-19T23:19:22.804Z,29.85
2023-01-19T23:21:54.869Z,30.35
2023-01-19T23:24:23.884Z,27.88
2023-01-19T23:26:53.742Z,28.65
2023-01-19T23:29:22.984Z,28.48
2023-01-19T23:31:54.541Z,30.60
2023-01-19T23:34:23.903Z,29.63
2023-01-19T23:36:53.111Z,31.92
2023-01-19T23:39:23.702Z,30.48
2023-01-19T23:41:53.090Z,29.77
2023-01-19T23:44:22.317Z,31.40
2023-01-19T23:46:52.034Z,32.17
2023-01-19T23:49:21.602Z,31.77
2023-01-19T23:51:50.984Z,32.13
2023-01-19T23:54:20.433Z,30.27
2023-01-19T23:56:49.721Z,32.10
2023-01-19T23:59:18.972Z,31.42
